sensor_id;sensor_type;location;lat;lon;timestamp;temperature;humidity
2941;DHT22;1480;51.456;6.670;2023-02-20T00:01:56;7.10;95.90
2941;DHT22;1480;51.456;6.670;2023-02-20T00:04:23;7.00;95.90
2941;DHT22;1480;51.456;6.670;2023-02-20T00:06:50;7.10;96.20
2941;DHT22;1480;51.456;6.670;2023-02-20T00:09:17;7.00;96.10
2941;DHT22;1480;51.456;6.670;2023-02-20T00:11:44;7.00;96.10
2941;DHT22;1480;51.456;6.670;2023-02-20T00:14:11;7.20;96.90
2941;DHT22;1480;51.456;6.670;2023-02-20T00:16:38;7.20;96.40
2941;DHT22;1480;51.456;6.670;2023-02-20T00:19:07;7.10;96.40
2941;DHT22;1480;51.456;6.670;2023-02-20T00:21:33;7.30;96.30
2941;DHT22;1480;51.456;6.670;2023-02-20T00:24:00;7.20;96.70
2941;DHT22;1480;51.456;6.670;2023-02-20T00:26:27;7.20;96.60
2941;DHT22;1480;51.456;6.670;2023-02-20T00:28:54;7.20;97.10
2941;DHT22;1480;51.456;6.670;2023-02-20T00:31:21;7.20;97.20
2941;DHT22;1480;51.456;6.670;2023-02-20T00:33:48;7.10;97.30
2941;DHT22;1480;51.456;6.670;2023-02-20T00:36:18;7.20;97.50
2941;DHT22;1480;51.456;6.670;2023-02-20T00:38:45;7.10;97.50
2941;DHT22;1480;51.456;6.670;2023-02-20T00:41:13;7.10;97.50
2941;DHT22;1480;51.456;6.670;2023-02-20T00:43:42;7.10;97.40
2941;DHT22;1480;51.456;6.670;2023-02-20T00:46:10;7.10;97.60
2941;DHT22;1480;51.456;6.670;2023-02-20T00:48:38;7.30;97.80
2941;DHT22;1480;51.456;6.670;2023-02-20T00:51:45;7.00;98.50
2941;DHT22;1480;51.456;6.670;2023-02-20T00:54:12;7.10;97.80
2941;DHT22;1480;51.456;6.670;2023-02-20T00:56:39;7.20;98.40
2941;DHT22;1480;51.456;6.670;2023-02-20T00:59:06;7.10;98.50
2941;DHT22;1480;51.456;6.670;2023-02-20T01:01:33;7.20;98.80
2941;DHT22;1480;51.456;6.670;2023-02-20T01:04:00;7.20;98.70
2941;DHT22;1480;51.456;6.670;2023-02-20T01:06:27;7.20;98.70
2941;DHT22;1480;51.456;6.670;2023-02-20T01:08:55;7.20;98.80
2941;DHT22;1480;51.456;6.670;2023-02-20T01:11:22;7.10;99.00
2941;DHT22;1480;51.456;6.670;2023-02-20T01:13:51;7.20;98.50
2941;DHT22;1480;51.456;6.670;2023-02-20T01:16:18;7.00;98.20
2941;DHT22;1480;51.456;6.670;2023-02-20T01:18:48;7.10;98.70
2941;DHT22;1480;51.456;6.670;2023-02-20T01:21:16;7.40;98.50
2941;DHT22;1480;51.456;6.670;2023-02-20T01:23:43;7.10;98.70
2941;DHT22;1480;51.456;6.670;2023-02-20T01:26:11;7.30;98.70
2941;DHT22;1480;51.456;6.670;2023-02-20T01:28:38;7.10;99.10
2941;DHT22;1480;51.456;6.670;2023-02-20T01:31:08;7.20;98.90
2941;DHT22;1480;51.456;6.670;2023-02-20T01:33:35;7.30;98.80
2941;DHT22;1480;51.456;6.670;2023-02-20T01:36:02;7.30;98.40
2941;DHT22;1480;51.456;6.670;2023-02-20T01:38:29;7.50;99.20
2941;DHT22;1480;51.456;6.670;2023-02-20T01:40:56;7.40;98.50
2941;DHT22;1480;51.456;6.670;2023-02-20T01:43:25;7.40;98.10
2941;DHT22;1480;51.456;6.670;2023-02-20T01:45:52;7.40;98.70
2941;DHT22;1480;51.456;6.670;2023-02-20T01:48:20;7.50;98.20
2941;DHT22;1480;51.456;6.670;2023-02-20T01:50:51;7.50;98.40
2941;DHT22;1480;51.456;6.670;2023-02-20T01:53:21;7.70;98.50
2941;DHT22;1480;51.456;6.670;2023-02-20T01:55:51;7.60;97.90
2941;DHT22;1480;51.456;6.670;2023-02-20T01:58:22;7.40;97.80
2941;DHT22;1480;51.456;6.670;2023-02-20T02:00:51;7.60;98.20
2941;DHT22;1480;51.456;6.670;2023-02-20T02:03:20;7.40;97.50
2941;DHT22;1480;51.456;6.670;2023-02-20T02:05:51;7.40;97.60
2941;DHT22;1480;51.456;6.670;2023-02-20T02:08:21;7.40;97.10
2941;DHT22;1480;51.456;6.670;2023-02-20T02:10:51;7.20;97.40
2941;DHT22;1480;51.456;6.670;2023-02-20T02:13:20;7.30;97.70
2941;DHT22;1480;51.456;6.670;2023-02-20T02:15:51;7.20;98.10
2941;DHT22;1480;51.456;6.670;2023-02-20T02:18:45;7.10;98.30
2941;DHT22;1480;51.456;6.670;2023-02-20T02:27:45;7.10;99.20
2941;DHT22;1480;51.456;6.670;2023-02-20T02:31:03;7.00;99.10
2941;DHT22;1480;51.456;6.670;2023-02-20T02:34:17;6.90;99.20
2941;DHT22;1480;51.456;6.670;2023-02-20T02:37:00;6.90;99.90
2941;DHT22;1480;51.456;6.670;2023-02-20T02:39:35;7.00;99.70
2941;DHT22;1480;51.456;6.670;2023-02-20T02:42:08;7.00;99.60
2941;DHT22;1480;51.456;6.670;2023-02-20T02:44:43;6.90;99.10
2941;DHT22;1480;51.456;6.670;2023-02-20T02:47:16;7.00;99.80
2941;DHT22;1480;51.456;6.670;2023-02-20T02:49:47;7.00;99.60
2941;DHT22;1480;51.456;6.670;2023-02-20T02:52:20;6.90;99.90
2941;DHT22;1480;51.456;6.670;2023-02-20T02:55:01;6.90;99.90
2941;DHT22;1480;51.456;6.670;2023-02-20T02:57:28;7.00;99.90
2941;DHT22;1480;51.456;6.670;2023-02-20T02:59:59;7.10;99.70
2941;DHT22;1480;51.456;6.670;2023-02-20T03:02:30;7.10;99.80
2941;DHT22;1480;51.456;6.670;2023-02-20T03:05:00;7.20;99.90
2941;DHT22;1480;51.456;6.670;2023-02-20T03:07:30;7.00;99.70
2941;DHT22;1480;51.456;6.670;2023-02-20T03:10:01;7.10;99.90
2941;DHT22;1480;51.456;6.670;2023-02-20T03:12:35;7.20;99.90
2941;DHT22;1480;51.456;6.670;2023-02-20T03:15:07;7.20;99.90
2941;DHT22;1480;51.456;6.670;2023-02-20T03:18:01;7.00;99.40
2941;DHT22;1480;51.456;6.670;2023-02-20T03:20:35;7.10;99.90
2941;DHT22;1480;51.456;6.670;2023-02-20T03:23:05;7.40;99.30
2941;DHT22;1480;51.456;6.670;2023-02-20T03:25:36;7.10;99.00
2941;DHT22;1480;51.456;6.670;2023-02-20T03:28:07;7.20;99.00
2941;DHT22;1480;51.456;6.670;2023-02-20T03:30:38;7.30;98.70
2941;DHT22;1480;51.456;6.670;2023-02-20T03:33:11;7.30;98.60
2941;DHT22;1480;51.456;6.670;2023-02-20T03:35:58;7.30;98.40
2941;DHT22;1480;51.456;6.670;2023-02-20T03:38:48;7.20;99.20
2941;DHT22;1480;51.456;6.670;2023-02-20T03:41:34;7.00;99.20
2941;DHT22;1480;51.456;6.670;2023-02-20T03:44:22;7.10;99.20
2941;DHT22;1480;51.456;6.670;2023-02-20T03:46:52;7.20;99.00
2941;DHT22;1480;51.456;6.670;2023-02-20T03:49:24;7.20;99.20
2941;DHT22;1480;51.456;6.670;2023-02-20T03:51:53;7.00;99.10
2941;DHT22;1480;51.456;6.670;2023-02-20T03:54:34;7.20;99.60
2941;DHT22;1480;51.456;6.670;2023-02-20T03:57:04;7.00;99.40
2941;DHT22;1480;51.456;6.670;2023-02-20T03:59:36;7.10;98.70
2941;DHT22;1480;51.456;6.670;2023-02-20T04:02:08;7.20;99.10
2941;DHT22;1480;51.456;6.670;2023-02-20T04:04:42;7.10;99.20
2941;DHT22;1480;51.456;6.670;2023-02-20T04:07:14;6.90;99.10
2941;DHT22;1480;51.456;6.670;2023-02-20T04:09:45;7.00;99.20
2941;DHT22;1480;51.456;6.670;2023-02-20T04:12:16;6.90;99.60
2941;DHT22;1480;51.456;6.670;2023-02-20T04:14:45;7.00;99.40
2941;DHT22;1480;51.456;6.670;2023-02-20T04:17:18;7.00;99.10
2941;DHT22;1480;51.456;6.670;2023-02-20T04:19:46;6.90;99.20
2941;DHT22;1480;51.456;6.670;2023-02-20T04:22:17;6.90;99.50
2941;DHT22;1480;51.456;6.670;2023-02-20T04:24:51;7.00;99.20
2941;DHT22;1480;51.456;6.670;2023-02-20T04:27:22;6.90;98.50
2941;DHT22;1480;51.456;6.670;2023-02-20T04:29:54;6.90;98.40
2941;DHT22;1480;51.456;6.670;2023-02-20T04:32:21;7.00;98.20
2941;DHT22;1480;51.456;6.670;2023-02-20T04:34:48;6.80;99.10
2941;DHT22;1480;51.456;6.670;2023-02-20T04:37:17;6.90;99.10
2941;DHT22;1480;51.456;6.670;2023-02-20T04:39:47;6.80;98.80
2941;DHT22;1480;51.456;6.670;2023-02-20T04:42:15;6.90;99.00
2941;DHT22;1480;51.456;6.670;2023-02-20T04:44:42;6.80;99.10
2941;DHT22;1480;51.456;6.670;2023-02-20T04:47:14;6.80;99.70
2941;DHT22;1480;51.456;6.670;2023-02-20T04:49:42;6.80;99.20
2941;DHT22;1480;51.456;6.670;2023-02-20T04:52:11;6.80;99.20
2941;DHT22;1480;51.456;6.670;2023-02-20T04:54:38;6.90;99.40
2941;DHT22;1480;51.456;6.670;2023-02-20T04:57:09;7.00;99.40
2941;DHT22;1480;51.456;6.670;2023-02-20T04:59:36;6.90;99.80
2941;DHT22;1480;51.456;6.670;2023-02-20T05:02:04;7.10;99.20
2941;DHT22;1480;51.456;6.670;2023-02-20T05:04:31;7.10;99.30
2941;DHT22;1480;51.456;6.670;2023-02-20T05:06:58;7.00;99.00
2941;DHT22;1480;51.456;6.670;2023-02-20T05:09:25;7.10;98.90
2941;DHT22;1480;51.456;6.670;2023-02-20T05:11:52;7.20;98.20
2941;DHT22;1480;51.456;6.670;2023-02-20T05:14:20;7.30;99.30
2941;DHT22;1480;51.456;6.670;2023-02-20T05:16:48;7.50;99.70
2941;DHT22;1480;51.456;6.670;2023-02-20T05:19:16;7.40;99.50
2941;DHT22;1480;51.456;6.670;2023-02-20T05:21:44;7.40;98.80
2941;DHT22;1480;51.456;6.670;2023-02-20T05:24:29;7.50;98.70
2941;DHT22;1480;51.456;6.670;2023-02-20T05:26:57;7.40;98.30
2941;DHT22;1480;51.456;6.670;2023-02-20T05:29:25;7.50;97.70
2941;DHT22;1480;51.456;6.670;2023-02-20T05:31:52;7.70;97.70
2941;DHT22;1480;51.456;6.670;2023-02-20T05:34:19;7.40;97.70
2941;DHT22;1480;51.456;6.670;2023-02-20T05:36:47;7.20;98.40
2941;DHT22;1480;51.456;6.670;2023-02-20T05:39:14;7.50;98.60
2941;DHT22;1480;51.456;6.670;2023-02-20T05:41:41;7.60;99.20
2941;DHT22;1480;51.456;6.670;2023-02-20T05:44:08;7.50;98.00
2941;DHT22;1480;51.456;6.670;2023-02-20T05:46:39;7.60;98.20
2941;DHT22;1480;51.456;6.670;2023-02-20T05:49:07;7.60;97.80
2941;DHT22;1480;51.456;6.670;2023-02-20T05:51:34;7.60;97.80
2941;DHT22;1480;51.456;6.670;2023-02-20T05:54:01;7.60;97.60
2941;DHT22;1480;51.456;6.670;2023-02-20T05:56:28;7.80;97.50
2941;DHT22;1480;51.456;6.670;2023-02-20T05:58:57;7.70;97.40
2941;DHT22;1480;51.456;6.670;2023-02-20T06:01:26;7.60;98.00
2941;DHT22;1480;51.456;6.670;2023-02-20T06:03:55;7.70;97.10
2941;DHT22;1480;51.456;6.670;2023-02-20T06:06:22;7.70;97.40
2941;DHT22;1480;51.456;6.670;2023-02-20T06:08:49;7.60;97.20
2941;DHT22;1480;51.456;6.670;2023-02-20T06:11:16;7.50;97.90
2941;DHT22;1480;51.456;6.670;2023-02-20T06:13:43;7.60;97.90
2941;DHT22;1480;51.456;6.670;2023-02-20T06:16:11;7.60;97.90
2941;DHT22;1480;51.456;6.670;2023-02-20T06:18:39;7.40;98.10
2941;DHT22;1480;51.456;6.670;2023-02-20T06:21:08;7.50;97.90
2941;DHT22;1480;51.456;6.670;2023-02-20T06:23:36;7.40;97.60
2941;DHT22;1480;51.456;6.670;2023-02-20T06:26:03;7.60;97.90
2941;DHT22;1480;51.456;6.670;2023-02-20T06:28:30;7.50;97.40
2941;DHT22;1480;51.456;6.670;2023-02-20T06:30:57;7.70;97.60
2941;DHT22;1480;51.456;6.670;2023-02-20T06:33:24;7.40;97.60
2941;DHT22;1480;51.456;6.670;2023-02-20T06:35:51;7.60;97.20
2941;DHT22;1480;51.456;6.670;2023-02-20T06:38:19;7.60;97.40
2941;DHT22;1480;51.456;6.670;2023-02-20T06:40:46;7.60;97.50
2941;DHT22;1480;51.456;6.670;2023-02-20T06:43:13;7.60;97.50
2941;DHT22;1480;51.456;6.670;2023-02-20T06:45:40;7.30;97.00
2941;DHT22;1480;51.456;6.670;2023-02-20T06:48:07;7.50;97.50
2941;DHT22;1480;51.456;6.670;2023-02-20T06:50:34;7.40;97.00
2941;DHT22;1480;51.456;6.670;2023-02-20T06:53:01;7.50;96.90
2941;DHT22;1480;51.456;6.670;2023-02-20T06:55:29;7.40;97.20
2941;DHT22;1480;51.456;6.670;2023-02-20T06:57:57;7.70;97.10
2941;DHT22;1480;51.456;6.670;2023-02-20T07:00:24;7.60;96.70
2941;DHT22;1480;51.456;6.670;2023-02-20T07:02:51;7.60;96.90
2941;DHT22;1480;51.456;6.670;2023-02-20T07:05:18;7.60;97.20
2941;DHT22;1480;51.456;6.670;2023-02-20T07:07:45;7.50;97.10
2941;DHT22;1480;51.456;6.670;2023-02-20T07:10:12;7.50;97.30
2941;DHT22;1480;51.456;6.670;2023-02-20T07:12:40;7.50;97.40
2941;DHT22;1480;51.456;6.670;2023-02-20T07:15:09;7.90;97.00
2941;DHT22;1480;51.456;6.670;2023-02-20T07:17:36;7.80;96.70
2941;DHT22;1480;51.456;6.670;2023-02-20T07:20:04;7.60;96.90
2941;DHT22;1480;51.456;6.670;2023-02-20T07:22:31;8.00;96.60
2941;DHT22;1480;51.456;6.670;2023-02-20T07:24:58;7.90;95.90
2941;DHT22;1480;51.456;6.670;2023-02-20T07:27:25;8.00;96.30
2941;DHT22;1480;51.456;6.670;2023-02-20T07:29:53;7.90;96.50
2941;DHT22;1480;51.456;6.670;2023-02-20T07:32:20;7.90;97.10
2941;DHT22;1480;51.456;6.670;2023-02-20T07:34:48;8.00;96.40
2941;DHT22;1480;51.456;6.670;2023-02-20T07:37:15;7.90;96.00
2941;DHT22;1480;51.456;6.670;2023-02-20T07:39:42;8.10;95.90
2941;DHT22;1480;51.456;6.670;2023-02-20T07:42:09;8.30;95.40
2941;DHT22;1480;51.456;6.670;2023-02-20T07:44:51;8.10;95.60
2941;DHT22;1480;51.456;6.670;2023-02-20T07:47:19;8.30;95.90
2941;DHT22;1480;51.456;6.670;2023-02-20T07:49:46;8.20;95.60
2941;DHT22;1480;51.456;6.670;2023-02-20T07:52:13;8.30;95.00
2941;DHT22;1480;51.456;6.670;2023-02-20T07:54:40;8.30;95.50
2941;DHT22;1480;51.456;6.670;2023-02-20T07:57:07;8.20;95.20
2941;DHT22;1480;51.456;6.670;2023-02-20T07:59:34;8.30;95.00
2941;DHT22;1480;51.456;6.670;2023-02-20T08:02:01;8.30;94.80
2941;DHT22;1480;51.456;6.670;2023-02-20T08:04:29;8.50;94.80
2941;DHT22;1480;51.456;6.670;2023-02-20T08:06:56;8.50;94.00
2941;DHT22;1480;51.456;6.670;2023-02-20T08:09:23;8.50;94.40
2941;DHT22;1480;51.456;6.670;2023-02-20T08:11:50;8.70;94.10
2941;DHT22;1480;51.456;6.670;2023-02-20T08:14:17;8.60;93.20
2941;DHT22;1480;51.456;6.670;2023-02-20T08:16:44;8.60;93.30
2941;DHT22;1480;51.456;6.670;2023-02-20T08:19:11;8.80;93.60
2941;DHT22;1480;51.456;6.670;2023-02-20T08:21:39;8.90;92.50
2941;DHT22;1480;51.456;6.670;2023-02-20T08:24:06;8.90;92.60
2941;DHT22;1480;51.456;6.670;2023-02-20T08:26:33;8.80;93.20
2941;DHT22;1480;51.456;6.670;2023-02-20T08:29:00;8.70;92.60
2941;DHT22;1480;51.456;6.670;2023-02-20T08:31:27;8.70;93.00
2941;DHT22;1480;51.456;6.670;2023-02-20T08:33:54;8.70;93.30
2941;DHT22;1480;51.456;6.670;2023-02-20T08:36:21;8.80;92.70
2941;DHT22;1480;51.456;6.670;2023-02-20T08:38:49;8.90;92.70
2941;DHT22;1480;51.456;6.670;2023-02-20T08:41:16;9.00;93.00
2941;DHT22;1480;51.456;6.670;2023-02-20T08:43:43;9.10;92.20
2941;DHT22;1480;51.456;6.670;2023-02-20T08:46:10;9.00;92.00
2941;DHT22;1480;51.456;6.670;2023-02-20T08:48:37;8.90;92.40
2941;DHT22;1480;51.456;6.670;2023-02-20T08:51:05;8.80;92.30
2941;DHT22;1480;51.456;6.670;2023-02-20T08:53:32;8.90;92.60
2941;DHT22;1480;51.456;6.670;2023-02-20T08:56:01;9.00;93.00
2941;DHT22;1480;51.456;6.670;2023-02-20T08:58:29;9.10;92.40
2941;DHT22;1480;51.456;6.670;2023-02-20T09:00:56;9.00;92.20
2941;DHT22;1480;51.456;6.670;2023-02-20T09:03:23;9.10;92.50
2941;DHT22;1480;51.456;6.670;2023-02-20T09:05:52;9.00;92.50
2941;DHT22;1480;51.456;6.670;2023-02-20T09:08:18;9.00;91.80
2941;DHT22;1480;51.456;6.670;2023-02-20T09:10:45;9.00;92.00
2941;DHT22;1480;51.456;6.670;2023-02-20T09:13:14;9.20;91.70
2941;DHT22;1480;51.456;6.670;2023-02-20T09:15:41;9.30;91.70
2941;DHT22;1480;51.456;6.670;2023-02-20T09:18:11;9.00;91.70
2941;DHT22;1480;51.456;6.670;2023-02-20T09:20:39;9.10;91.80
2941;DHT22;1480;51.456;6.670;2023-02-20T09:23:06;9.10;92.40
2941;DHT22;1480;51.456;6.670;2023-02-20T09:25:33;9.10;92.20
2941;DHT22;1480;51.456;6.670;2023-02-20T09:28:03;8.90;92.50
2941;DHT22;1480;51.456;6.670;2023-02-20T09:30:32;9.20;92.60
2941;DHT22;1480;51.456;6.670;2023-02-20T09:32:59;9.30;91.80
2941;DHT22;1480;51.456;6.670;2023-02-20T09:35:27;9.20;91.50
2941;DHT22;1480;51.456;6.670;2023-02-20T09:37:55;9.20;91.80
2941;DHT22;1480;51.456;6.670;2023-02-20T09:40:23;9.40;91.60
2941;DHT22;1480;51.456;6.670;2023-02-20T09:43:11;9.50;90.70
2941;DHT22;1480;51.456;6.670;2023-02-20T09:45:43;9.60;90.80
2941;DHT22;1480;51.456;6.670;2023-02-20T09:48:19;9.60;90.90
2941;DHT22;1480;51.456;6.670;2023-02-20T09:50:50;9.60;90.80
2941;DHT22;1480;51.456;6.670;2023-02-20T09:53:22;9.50;90.60
2941;DHT22;1480;51.456;6.670;2023-02-20T09:55:52;9.50;90.80
2941;DHT22;1480;51.456;6.670;2023-02-20T09:58:25;9.60;90.60
2941;DHT22;1480;51.456;6.670;2023-02-20T10:00:58;9.50;91.20
2941;DHT22;1480;51.456;6.670;2023-02-20T10:03:31;9.60;90.90
2941;DHT22;1480;51.456;6.670;2023-02-20T10:06:07;9.70;91.20
2941;DHT22;1480;51.456;6.670;2023-02-20T10:08:36;9.80;91.10
2941;DHT22;1480;51.456;6.670;2023-02-20T10:11:05;9.90;90.20
2941;DHT22;1480;51.456;6.670;2023-02-20T10:13:43;9.80;90.20
2941;DHT22;1480;51.456;6.670;2023-02-20T10:16:27;9.80;89.70
2941;DHT22;1480;51.456;6.670;2023-02-20T10:19:03;9.70;90.50
2941;DHT22;1480;51.456;6.670;2023-02-20T10:21:43;9.80;90.40
2941;DHT22;1480;51.456;6.670;2023-02-20T10:24:25;9.90;90.30
2941;DHT22;1480;51.456;6.670;2023-02-20T10:26:56;9.90;90.00
2941;DHT22;1480;51.456;6.670;2023-02-20T10:29:31;9.80;90.00
2941;DHT22;1480;51.456;6.670;2023-02-20T10:32:04;9.80;90.30
2941;DHT22;1480;51.456;6.670;2023-02-20T10:34:36;9.80;90.50
2941;DHT22;1480;51.456;6.670;2023-02-20T10:37:09;9.90;89.40
2941;DHT22;1480;51.456;6.670;2023-02-20T10:39:40;10.10;89.40
2941;DHT22;1480;51.456;6.670;2023-02-20T10:42:13;10.10;89.70
2941;DHT22;1480;51.456;6.670;2023-02-20T10:44:46;10.30;89.20
2941;DHT22;1480;51.456;6.670;2023-02-20T10:47:22;10.20;89.00
2941;DHT22;1480;51.456;6.670;2023-02-20T10:49:55;10.30;89.10
2941;DHT22;1480;51.456;6.670;2023-02-20T10:52:26;10.30;88.90
2941;DHT22;1480;51.456;6.670;2023-02-20T10:54:59;10.20;88.20
2941;DHT22;1480;51.456;6.670;2023-02-20T10:57:33;10.10;89.30
2941;DHT22;1480;51.456;6.670;2023-02-20T11:00:06;10.30;89.00
2941;DHT22;1480;51.456;6.670;2023-02-20T11:02:39;10.40;88.80
2941;DHT22;1480;51.456;6.670;2023-02-20T11:05:09;10.30;88.10
2941;DHT22;1480;51.456;6.670;2023-02-20T11:07:37;10.20;89.60
2941;DHT22;1480;51.456;6.670;2023-02-20T11:10:05;10.20;88.90
2941;DHT22;1480;51.456;6.670;2023-02-20T11:12:36;10.30;88.50
2941;DHT22;1480;51.456;6.670;2023-02-20T11:15:09;10.20;89.50
2941;DHT22;1480;51.456;6.670;2023-02-20T11:17:39;10.40;89.30
2941;DHT22;1480;51.456;6.670;2023-02-20T11:20:41;10.20;88.20
2941;DHT22;1480;51.456;6.670;2023-02-20T11:23:34;10.20;89.10
2941;DHT22;1480;51.456;6.670;2023-02-20T11:29:11;10.40;88.10
2941;DHT22;1480;51.456;6.670;2023-02-20T11:31:40;10.30;88.50
2941;DHT22;1480;51.456;6.670;2023-02-20T11:34:15;10.30;88.70
2941;DHT22;1480;51.456;6.670;2023-02-20T11:36:45;10.20;88.90
2941;DHT22;1480;51.456;6.670;2023-02-20T11:39:21;10.20;89.40
2941;DHT22;1480;51.456;6.670;2023-02-20T11:42:02;10.40;89.10
2941;DHT22;1480;51.456;6.670;2023-02-20T11:44:30;10.30;89.30
2941;DHT22;1480;51.456;6.670;2023-02-20T11:47:17;10.40;88.80
2941;DHT22;1480;51.456;6.670;2023-02-20T11:49:47;10.40;88.50
2941;DHT22;1480;51.456;6.670;2023-02-20T11:52:16;10.30;88.80
2941;DHT22;1480;51.456;6.670;2023-02-20T11:54:44;10.30;88.70
2941;DHT22;1480;51.456;6.670;2023-02-20T11:57:24;10.20;89.20
2941;DHT22;1480;51.456;6.670;2023-02-20T12:00:09;10.30;89.00
2941;DHT22;1480;51.456;6.670;2023-02-20T12:02:48;10.20;89.40
2941;DHT22;1480;51.456;6.670;2023-02-20T12:05:18;10.20;89.90
2941;DHT22;1480;51.456;6.670;2023-02-20T12:07:56;9.90;90.20
2941;DHT22;1480;51.456;6.670;2023-02-20T12:10:38;9.90;90.30
2941;DHT22;1480;51.456;6.670;2023-02-20T12:13:11;10.00;90.20
2941;DHT22;1480;51.456;6.670;2023-02-20T12:15:39;10.00;90.40
2941;DHT22;1480;51.456;6.670;2023-02-20T12:18:35;10.00;90.90
2941;DHT22;1480;51.456;6.670;2023-02-20T12:21:20;10.10;90.50
2941;DHT22;1480;51.456;6.670;2023-02-20T12:23:58;10.00;90.60
2941;DHT22;1480;51.456;6.670;2023-02-20T12:26:49;9.90;90.40
2941;DHT22;1480;51.456;6.670;2023-02-20T12:29:23;10.00;91.10
2941;DHT22;1480;51.456;6.670;2023-02-20T12:32:02;9.90;90.80
2941;DHT22;1480;51.456;6.670;2023-02-20T12:34:40;10.00;90.90
2941;DHT22;1480;51.456;6.670;2023-02-20T12:37:30;10.00;90.50
2941;DHT22;1480;51.456;6.670;2023-02-20T12:40:07;9.90;91.30
2941;DHT22;1480;51.456;6.670;2023-02-20T12:42:45;10.00;91.20
2941;DHT22;1480;51.456;6.670;2023-02-20T12:45:22;10.00;91.40
2941;DHT22;1480;51.456;6.670;2023-02-20T12:48:03;10.20;91.50
2941;DHT22;1480;51.456;6.670;2023-02-20T12:50:56;10.20;91.40
2941;DHT22;1480;51.456;6.670;2023-02-20T12:53:35;10.20;91.60
2941;DHT22;1480;51.456;6.670;2023-02-20T12:56:15;10.20;91.20
2941;DHT22;1480;51.456;6.670;2023-02-20T12:58:49;10.40;91.00
2941;DHT22;1480;51.456;6.670;2023-02-20T13:01:20;10.40;90.80
2941;DHT22;1480;51.456;6.670;2023-02-20T13:03:56;10.20;90.60
2941;DHT22;1480;51.456;6.670;2023-02-20T13:06:29;10.30;91.00
2941;DHT22;1480;51.456;6.670;2023-02-20T13:09:08;10.30;91.10
2941;DHT22;1480;51.456;6.670;2023-02-20T13:11:40;10.30;91.50
2941;DHT22;1480;51.456;6.670;2023-02-20T13:14:18;10.20;92.30
2941;DHT22;1480;51.456;6.670;2023-02-20T13:16:54;10.10;92.10
2941;DHT22;1480;51.456;6.670;2023-02-20T13:19:28;10.40;92.00
2941;DHT22;1480;51.456;6.670;2023-02-20T13:21:57;10.30;91.50
2941;DHT22;1480;51.456;6.670;2023-02-20T13:24:31;10.40;91.20
2941;DHT22;1480;51.456;6.670;2023-02-20T13:26:59;10.40;91.20
2941;DHT22;1480;51.456;6.670;2023-02-20T13:29:32;10.40;91.00
2941;DHT22;1480;51.456;6.670;2023-02-20T13:32:02;10.40;91.10
2941;DHT22;1480;51.456;6.670;2023-02-20T13:34:33;10.40;91.70
2941;DHT22;1480;51.456;6.670;2023-02-20T13:37:00;10.40;91.40
2941;DHT22;1480;51.456;6.670;2023-02-20T13:39:47;10.40;91.20
2941;DHT22;1480;51.456;6.670;2023-02-20T13:42:35;10.30;91.10
2941;DHT22;1480;51.456;6.670;2023-02-20T13:51:27;10.10;91.90
2941;DHT22;1480;51.456;6.670;2023-02-20T13:53:59;10.10;92.10
2941;DHT22;1480;51.456;6.670;2023-02-20T13:56:42;10.20;92.10
2941;DHT22;1480;51.456;6.670;2023-02-20T13:59:12;10.00;92.30
2941;DHT22;1480;51.456;6.670;2023-02-20T14:01:56;10.20;91.90
2941;DHT22;1480;51.456;6.670;2023-02-20T14:04:23;10.10;91.60
2941;DHT22;1480;51.456;6.670;2023-02-20T14:06:52;10.10;92.10
2941;DHT22;1480;51.456;6.670;2023-02-20T14:09:20;10.10;92.00
2941;DHT22;1480;51.456;6.670;2023-02-20T14:11:52;10.10;92.40
2941;DHT22;1480;51.456;6.670;2023-02-20T14:14:28;10.00;92.80
2941;DHT22;1480;51.456;6.670;2023-02-20T14:17:04;10.00;93.00
2941;DHT22;1480;51.456;6.670;2023-02-20T14:19:32;10.10;93.00
2941;DHT22;1480;51.456;6.670;2023-02-20T14:22:24;10.00;92.90
2941;DHT22;1480;51.456;6.670;2023-02-20T14:25:18;10.10;92.80
2941;DHT22;1480;51.456;6.670;2023-02-20T14:27:47;10.00;93.60
2941;DHT22;1480;51.456;6.670;2023-02-20T14:30:16;10.00;93.40
2941;DHT22;1480;51.456;6.670;2023-02-20T14:32:45;10.00;93.30
2941;DHT22;1480;51.456;6.670;2023-02-20T14:35:31;10.00;93.10
2941;DHT22;1480;51.456;6.670;2023-02-20T14:38:12;9.90;93.80
2941;DHT22;1480;51.456;6.670;2023-02-20T14:40:42;10.00;93.60
2941;DHT22;1480;51.456;6.670;2023-02-20T14:43:15;10.00;94.00
2941;DHT22;1480;51.456;6.670;2023-02-20T14:45:43;9.90;94.00
2941;DHT22;1480;51.456;6.670;2023-02-20T14:48:22;10.00;94.00
2941;DHT22;1480;51.456;6.670;2023-02-20T14:51:02;10.10;93.90
2941;DHT22;1480;51.456;6.670;2023-02-20T14:53:29;10.10;93.40
2941;DHT22;1480;51.456;6.670;2023-02-20T14:55:56;10.10;93.70
2941;DHT22;1480;51.456;6.670;2023-02-20T14:58:24;10.10;94.00
2941;DHT22;1480;51.456;6.670;2023-02-20T15:00:52;10.20;93.50
2941;DHT22;1480;51.456;6.670;2023-02-20T15:03:24;10.20;93.70
2941;DHT22;1480;51.456;6.670;2023-02-20T15:05:52;10.20;93.20
2941;DHT22;1480;51.456;6.670;2023-02-20T15:08:22;10.20;93.60
2941;DHT22;1480;51.456;6.670;2023-02-20T15:10:51;10.30;93.60
2941;DHT22;1480;51.456;6.670;2023-02-20T15:13:21;10.20;93.50
2941;DHT22;1480;51.456;6.670;2023-02-20T15:16:04;10.10;93.60
2941;DHT22;1480;51.456;6.670;2023-02-20T15:18:33;10.10;93.60
2941;DHT22;1480;51.456;6.670;2023-02-20T15:21:00;10.20;93.90
2941;DHT22;1480;51.456;6.670;2023-02-20T15:23:29;10.20;94.10
2941;DHT22;1480;51.456;6.670;2023-02-20T15:25:56;10.10;93.80
2941;DHT22;1480;51.456;6.670;2023-02-20T15:28:27;10.20;93.80
2941;DHT22;1480;51.456;6.670;2023-02-20T15:31:12;10.20;93.50
2941;DHT22;1480;51.456;6.670;2023-02-20T15:33:48;10.20;93.80
2941;DHT22;1480;51.456;6.670;2023-02-20T15:36:19;10.10;93.70
2941;DHT22;1480;51.456;6.670;2023-02-20T15:38:46;10.10;93.90
2941;DHT22;1480;51.456;6.670;2023-02-20T15:41:13;10.20;93.90
2941;DHT22;1480;51.456;6.670;2023-02-20T15:43:42;10.30;93.80
2941;DHT22;1480;51.456;6.670;2023-02-20T15:46:11;10.20;93.80
2941;DHT22;1480;51.456;6.670;2023-02-20T15:48:38;10.20;93.40
2941;DHT22;1480;51.456;6.670;2023-02-20T15:51:06;10.20;93.50
2941;DHT22;1480;51.456;6.670;2023-02-20T15:53:34;10.10;93.30
2941;DHT22;1480;51.456;6.670;2023-02-20T15:56:02;10.10;93.50
2941;DHT22;1480;51.456;6.670;2023-02-20T15:58:31;10.10;93.40
2941;DHT22;1480;51.456;6.670;2023-02-20T16:00:59;10.10;94.00
2941;DHT22;1480;51.456;6.670;2023-02-20T16:03:29;10.10;93.90
2941;DHT22;1480;51.456;6.670;2023-02-20T16:05:56;10.10;93.80
2941;DHT22;1480;51.456;6.670;2023-02-20T16:08:25;10.20;93.40
2941;DHT22;1480;51.456;6.670;2023-02-20T16:10:53;10.20;93.40
2941;DHT22;1480;51.456;6.670;2023-02-20T16:13:26;10.40;92.90
2941;DHT22;1480;51.456;6.670;2023-02-20T16:15:53;10.40;92.60
2941;DHT22;1480;51.456;6.670;2023-02-20T16:18:21;10.40;92.50
2941;DHT22;1480;51.456;6.670;2023-02-20T16:20:51;10.50;92.20
2941;DHT22;1480;51.456;6.670;2023-02-20T16:23:18;10.50;92.00
2941;DHT22;1480;51.456;6.670;2023-02-20T16:25:45;10.50;91.80
2941;DHT22;1480;51.456;6.670;2023-02-20T16:28:12;10.50;92.10
2941;DHT22;1480;51.456;6.670;2023-02-20T16:30:40;10.50;92.10
2941;DHT22;1480;51.456;6.670;2023-02-20T16:33:13;10.50;92.10
2941;DHT22;1480;51.456;6.670;2023-02-20T16:35:40;10.40;92.10
2941;DHT22;1480;51.456;6.670;2023-02-20T16:38:09;10.50;91.90
2941;DHT22;1480;51.456;6.670;2023-02-20T16:40:36;10.50;91.80
2941;DHT22;1480;51.456;6.670;2023-02-20T16:43:04;10.50;92.10
2941;DHT22;1480;51.456;6.670;2023-02-20T16:45:31;10.50;92.10
2941;DHT22;1480;51.456;6.670;2023-02-20T16:47:59;10.50;92.00
2941;DHT22;1480;51.456;6.670;2023-02-20T16:50:27;10.40;91.90
2941;DHT22;1480;51.456;6.670;2023-02-20T16:52:55;10.50;92.00
2941;DHT22;1480;51.456;6.670;2023-02-20T16:55:26;10.50;92.30